createdAt,value
2023-02-19T00:00:15.442Z,11.51
2023-02-19T00:05:17.729Z,11.40
2023-02-19T00:10:19.834Z,11.42
2023-02-19T00:15:22.031Z,11.52
2023-02-19T00:20:24.433Z,11.18
2023-02-19T00:25:26.569Z,11.13
2023-02-19T00:30:28.756Z,11.29
2023-02-19T00:35:34.281Z,11.24
2023-02-19T00:40:36.412Z,11.11
2023-02-19T00:45:38.603Z,11.24
2023-02-19T00:50:40.692Z,11.14
2023-02-19T00:55:43.276Z,10.99
2023-02-19T01:00:45.444Z,11.07
2023-02-19T01:05:47.561Z,11.05
2023-02-19T01:10:49.698Z,11.23
2023-02-19T01:15:52.420Z,11.12
2023-02-19T01:20:54.869Z,10.95
2023-02-19T01:25:56.962Z,10.87
2023-02-19T01:31:04.308Z,11.11
2023-02-19T01:36:07.374Z,11.03
2023-02-19T01:41:12.303Z,11.26
2023-02-19T01:46:14.555Z,11.04
2023-02-19T01:51:19.661Z,10.76
2023-02-19T01:56:23.681Z,10.63
2023-02-19T02:01:25.829Z,10.36
2023-02-19T02:06:36.471Z,10.16
2023-02-19T02:11:45.153Z,10.43
2023-02-19T02:17:11.707Z,10.35
2023-02-19T02:22:29.670Z,10.63
2023-02-19T02:28:04.786Z,10.91
2023-02-19T02:33:13.058Z,10.89
2023-02-19T02:38:17.783Z,11.03
2023-02-19T02:43:19.939Z,10.96
2023-02-19T02:48:30.214Z,10.64
2023-02-19T02:53:53.814Z,10.92
2023-02-19T02:58:58.463Z,10.90
2023-02-19T03:04:05.957Z,10.63
2023-02-19T03:09:30.197Z,10.60
2023-02-19T03:15:02.392Z,10.42
2023-02-19T03:20:10.229Z,10.89
2023-02-19T03:25:38.337Z,10.95
2023-02-19T03:30:46.322Z,10.85
2023-02-19T03:35:57.507Z,10.73
2023-02-19T03:41:11.231Z,10.80
2023-02-19T03:46:23.337Z,10.68
2023-02-19T03:51:42.229Z,10.66
2023-02-19T03:56:58.756Z,10.63
2023-02-19T04:02:08.431Z,10.51
2023-02-19T04:07:11.189Z,10.50
2023-02-19T04:12:15.745Z,10.55
2023-02-19T04:17:27.402Z,10.26
2023-02-19T04:22:30.446Z,10.48
2023-02-19T04:27:32.935Z,10.38
2023-02-19T04:32:35.053Z,10.40
2023-02-19T04:37:37.140Z,10.23
2023-02-19T04:42:39.360Z,9.87
2023-02-19T04:47:41.538Z,9.60
2023-02-19T04:52:43.705Z,9.76
2023-02-19T04:57:45.878Z,9.83
2023-02-19T05:02:48.020Z,10.16
2023-02-19T05:07:50.149Z,10.10
2023-02-19T05:12:52.497Z,10.03
2023-02-19T05:17:54.578Z,10.28
2023-02-19T05:22:57.079Z,10.24
2023-02-19T05:28:16.968Z,10.38
2023-02-19T05:33:21.056Z,10.52
2023-02-19T05:38:24.120Z,10.81
2023-02-19T05:43:26.201Z,10.74
2023-02-19T05:48:28.331Z,10.76
2023-02-19T05:53:30.978Z,10.76
2023-02-19T05:58:33.072Z,10.83
2023-02-19T06:03:35.158Z,10.91
2023-02-19T06:08:38.381Z,10.76
2023-02-19T06:13:40.507Z,10.87
2023-02-19T06:18:43.829Z,10.75
2023-02-19T06:23:45.996Z,10.75
2023-02-19T06:28:50.161Z,10.60
2023-02-19T06:33:52.364Z,10.48
2023-02-19T06:38:54.523Z,10.51
2023-02-19T06:43:59.554Z,10.45
2023-02-19T06:49:03.612Z,10.42
2023-02-19T06:54:05.872Z,10.43
2023-02-19T06:59:11.637Z,10.33
2023-02-19T07:04:14.127Z,10.29
2023-02-19T07:09:16.233Z,10.48
2023-02-19T07:14:18.382Z,10.59
2023-02-19T07:19:20.468Z,10.71
2023-02-19T07:24:22.770Z,10.84
2023-02-19T07:29:24.873Z,10.95
2023-02-19T07:34:26.984Z,10.98
2023-02-19T07:39:29.610Z,11.13
2023-02-19T07:44:31.775Z,11.18
2023-02-19T07:49:34.192Z,10.73
2023-02-19T07:54:36.279Z,10.52
2023-02-19T07:59:38.377Z,10.32
2023-02-19T08:04:40.703Z,10.46
2023-02-19T08:09:44.101Z,10.51
2023-02-19T08:14:46.241Z,10.51
2023-02-19T08:19:48.452Z,10.72
2023-02-19T08:24:50.585Z,10.63
2023-02-19T08:29:52.679Z,10.57
2023-02-19T08:34:54.813Z,10.44
2023-02-19T08:39:56.909Z,10.56
2023-02-19T08:44:59.016Z,9.87
2023-02-19T08:50:01.147Z,9.84
2023-02-19T08:55:05.420Z,10.21
2023-02-19T09:00:09.070Z,10.38
2023-02-19T09:05:12.134Z,10.45
2023-02-19T09:10:14.667Z,10.36
2023-02-19T09:15:16.925Z,10.25
2023-02-19T09:20:19.326Z,10.14
2023-02-19T09:25:21.482Z,10.09
2023-02-19T09:30:24.383Z,10.14
2023-02-19T09:35:26.663Z,10.56
2023-02-19T09:40:30.507Z,10.55
2023-02-19T09:45:34.795Z,10.75
2023-02-19T09:50:48.749Z,11.14
2023-02-19T09:55:53.056Z,11.48
2023-02-19T10:00:57.530Z,12.51
2023-02-19T10:06:27.028Z,12.75
2023-02-19T10:11:29.266Z,16.94
2023-02-19T10:16:31.601Z,17.59
2023-02-19T10:21:33.859Z,18.94
2023-02-19T10:26:36.853Z,19.40
2023-02-19T10:31:39.388Z,21.33
2023-02-19T10:36:45.278Z,18.28
2023-02-19T10:41:49.318Z,15.62
2023-02-19T10:46:55.370Z,14.91
2023-02-19T10:52:02.497Z,18.09
2023-02-19T10:57:19.718Z,18.14
2023-02-19T11:02:22.368Z,21.19
2023-02-19T11:07:24.465Z,21.91
2023-02-19T11:12:33.568Z,23.18
2023-02-19T11:17:35.935Z,21.99
2023-02-19T11:22:40.185Z,21.26
2023-02-19T11:28:08.334Z,21.08
2023-02-19T11:33:31.142Z,21.33
2023-02-19T11:38:33.290Z,22.56
2023-02-19T11:43:54.315Z,21.99
2023-02-19T11:49:19.466Z,22.84
2023-02-19T11:54:27.454Z,24.33
2023-02-19T11:59:52.218Z,23.35
2023-02-19T12:05:23.821Z,22.93
2023-02-19T12:10:31.985Z,24.14
2023-02-19T12:21:21.200Z,25.01
2023-02-19T12:26:29.720Z,25.49
2023-02-19T12:31:49.409Z,24.45
2023-02-19T12:37:16.106Z,26.57
2023-02-19T12:42:51.267Z,25.36
2023-02-19T12:48:32.328Z,23.10
2023-02-19T12:53:45.340Z,19.58
2023-02-19T12:58:53.767Z,14.27
2023-02-19T13:04:17.743Z,13.16
2023-02-19T13:09:30.799Z,13.15
2023-02-19T13:14:46.052Z,13.27
2023-02-19T13:19:52.055Z,18.50
2023-02-19T13:24:55.636Z,18.01
2023-02-19T13:30:10.452Z,14.81
2023-02-19T13:35:30.730Z,17.38
2023-02-19T13:40:39.473Z,13.02
2023-02-19T13:45:46.081Z,12.50
2023-02-19T13:50:48.334Z,12.13
2023-02-19T13:55:52.620Z,11.72
2023-02-19T14:00:55.110Z,11.21
2023-02-19T14:06:07.682Z,11.09
2023-02-19T14:11:12.357Z,11.13
2023-02-19T14:16:51.700Z,11.29
2023-02-19T14:21:54.130Z,11.26
2023-02-19T14:26:57.289Z,11.48
2023-02-19T14:32:01.216Z,11.75
2023-02-19T14:37:06.910Z,12.48
2023-02-19T14:42:21.832Z,14.07
2023-02-19T14:47:27.434Z,14.01
2023-02-19T14:52:44.840Z,12.99
2023-02-19T14:57:49.484Z,14.49
2023-02-19T15:03:00.757Z,13.66
2023-02-19T15:08:18.542Z,12.76
2023-02-19T15:13:28.298Z,11.69
2023-02-19T15:18:35.709Z,11.07
2023-02-19T15:23:38.949Z,11.92
2023-02-19T15:28:41.293Z,12.11
2023-02-19T15:33:51.291Z,11.52
2023-02-19T15:39:02.530Z,11.24
2023-02-19T15:44:17.673Z,10.89
2023-02-19T15:49:34.090Z,10.68
2023-02-19T15:55:04.389Z,10.45
2023-02-19T16:00:11.872Z,10.47
2023-02-19T16:05:22.828Z,10.50
2023-02-19T16:10:25.134Z,10.33
2023-02-19T16:15:29.748Z,10.02
2023-02-19T16:20:34.868Z,9.87
2023-02-19T16:25:44.278Z,9.98
2023-02-19T16:30:46.493Z,10.23
2023-02-19T16:35:49.778Z,10.24
2023-02-19T16:40:52.427Z,10.07
2023-02-19T16:45:54.871Z,9.73
2023-02-19T16:50:57.168Z,9.01
2023-02-19T16:55:59.987Z,8.82
2023-02-19T17:01:02.322Z,8.94
2023-02-19T17:06:05.103Z,8.92
2023-02-19T17:11:12.405Z,8.88
2023-02-19T17:16:21.561Z,8.69
2023-02-19T17:21:26.721Z,8.59
2023-02-19T17:26:30.676Z,8.49
2023-02-19T17:31:34.028Z,8.57
2023-02-19T17:36:38.092Z,8.41
2023-02-19T17:41:40.256Z,8.17
2023-02-19T17:46:43.017Z,8.27
2023-02-19T17:51:46.350Z,8.22
2023-02-19T17:56:48.647Z,7.93
2023-02-19T18:01:50.830Z,7.80
2023-02-19T18:06:53.973Z,7.70
2023-02-19T18:11:56.339Z,8.28
2023-02-19T18:16:58.915Z,8.64
2023-02-19T18:22:01.034Z,8.59
2023-02-19T18:27:03.212Z,8.38
2023-02-19T18:32:05.515Z,8.49
2023-02-19T18:37:07.640Z,8.19
2023-02-19T18:42:10.223Z,7.90
2023-02-19T18:47:12.429Z,7.93
2023-02-19T18:52:15.790Z,8.05
2023-02-19T18:57:19.261Z,7.49
2023-02-19T19:02:22.336Z,7.77
2023-02-19T19:07:24.938Z,7.73
2023-02-19T19:12:27.058Z,8.01
2023-02-19T19:17:29.178Z,8.22
2023-02-19T19:22:31.337Z,8.05
2023-02-19T19:27:33.567Z,8.23
2023-02-19T19:32:35.705Z,8.17
2023-02-19T19:37:37.885Z,8.07
2023-02-19T19:42:44.636Z,7.90
2023-02-19T19:47:48.781Z,7.91
2023-02-19T19:52:50.864Z,8.06
2023-02-19T19:57:54.635Z,8.13
2023-02-19T20:02:56.846Z,8.20
2023-02-19T20:07:59.000Z,8.11
2023-02-19T20:13:01.770Z,8.13
2023-02-19T20:18:04.060Z,8.10
2023-02-19T20:23:06.290Z,8.07
2023-02-19T20:28:08.717Z,8.12
2023-02-19T20:33:10.875Z,8.13
2023-02-19T20:38:15.707Z,7.99
2023-02-19T20:43:17.945Z,8.03
2023-02-19T20:48:20.135Z,7.89
2023-02-19T20:53:22.286Z,7.99
2023-02-19T20:58:25.494Z,7.69
2023-02-19T21:03:27.673Z,7.36
2023-02-19T21:08:29.799Z,7.19
2023-02-19T21:13:32.211Z,6.88
2023-02-19T21:18:34.471Z,7.04
2023-02-19T21:23:36.641Z,6.68
2023-02-19T21:28:40.725Z,6.19
2023-02-19T21:33:43.035Z,5.81
2023-02-19T21:38:45.132Z,5.93
2023-02-19T21:43:47.366Z,5.80
2023-02-19T21:48:55.052Z,5.62
2023-02-19T21:53:57.766Z,5.76
2023-02-19T21:58:59.979Z,5.49
2023-02-19T22:04:02.219Z,5.60
2023-02-19T22:09:04.446Z,5.54
2023-02-19T22:14:07.029Z,5.66
2023-02-19T22:19:12.117Z,5.44
2023-02-19T22:24:20.188Z,5.22
2023-02-19T22:29:24.144Z,5.21
2023-02-19T22:34:26.367Z,5.16
2023-02-19T22:39:28.525Z,4.90
2023-02-19T22:44:30.909Z,4.93
2023-02-19T22:49:33.061Z,4.97
2023-02-19T22:54:36.233Z,4.91
2023-02-19T22:59:38.457Z,4.95
2023-02-19T23:04:40.735Z,4.78
2023-02-19T23:09:43.082Z,5.10
2023-02-19T23:14:46.785Z,5.12
2023-02-19T23:19:50.852Z,4.95
2023-02-19T23:24:53.954Z,4.82
2023-02-19T23:29:57.431Z,4.71
2023-02-19T23:34:59.840Z,4.53
2023-02-19T23:40:02.005Z,4.60
2023-02-19T23:45:04.445Z,4.35
2023-02-19T23:50:07.178Z,4.40
2023-02-19T23:55:09.381Z,4.35
